sensor_id;sensor_type;location;lat;lon;timestamp;temperature;humidity
75357;HTU21D;63946;51.986;5.930;2023-06-14T05:23:18;20.87;37.47
75357;HTU21D;63946;51.986;5.930;2023-06-14T05:25:47;21.04;37.15
75357;HTU21D;63946;51.986;5.930;2023-06-14T05:28:16;21.35;36.63
75357;HTU21D;63946;51.986;5.930;2023-06-14T05:30:45;21.51;36.14
75357;HTU21D;63946;51.986;5.930;2023-06-14T05:33:13;21.54;36.23
75357;HTU21D;63946;51.986;5.930;2023-06-14T05:35:42;21.90;35.60
75357;HTU21D;63946;51.986;5.930;2023-06-14T05:38:11;21.94;35.53
75357;HTU21D;63946;51.986;5.930;2023-06-14T05:40:39;22.20;35.06
75357;HTU21D;63946;51.986;5.930;2023-06-14T05:43:08;22.52;34.57
75357;HTU21D;63946;51.986;5.930;2023-06-14T05:45:37;22.81;34.32
75357;HTU21D;63946;51.986;5.930;2023-06-14T05:48:06;22.87;34.21
75357;HTU21D;63946;51.986;5.930;2023-06-14T05:50:34;22.83;34.02
75357;HTU21D;63946;51.986;5.930;2023-06-14T05:53:03;22.82;33.86
75357;HTU21D;63946;51.986;5.930;2023-06-14T05:55:32;22.86;33.93
75357;HTU21D;63946;51.986;5.930;2023-06-14T05:58:01;23.01;33.60
75357;HTU21D;63946;51.986;5.930;2023-06-14T06:00:29;23.08;33.42
75357;HTU21D;63946;51.986;5.930;2023-06-14T06:02:58;23.16;33.35
75357;HTU21D;63946;51.986;5.930;2023-06-14T06:05:27;23.11;33.41
75357;HTU21D;63946;51.986;5.930;2023-06-14T06:07:55;23.07;33.34
75357;HTU21D;63946;51.986;5.930;2023-06-14T06:10:26;23.06;33.26
75357;HTU21D;63946;51.986;5.930;2023-06-14T06:12:55;23.02;33.39
75357;HTU21D;63946;51.986;5.930;2023-06-14T06:15:23;23.07;33.51
75357;HTU21D;63946;51.986;5.930;2023-06-14T06:17:52;23.17;33.36
75357;HTU21D;63946;51.986;5.930;2023-06-14T06:20:22;23.08;33.43
75357;HTU21D;63946;51.986;5.930;2023-06-14T06:22:53;23.14;33.51
75357;HTU21D;63946;51.986;5.930;2023-06-14T06:25:22;23.32;33.54
75357;HTU21D;63946;51.986;5.930;2023-06-14T06:27:52;23.56;33.08
75357;HTU21D;63946;51.986;5.930;2023-06-14T06:30:21;23.74;32.67
75357;HTU21D;63946;51.986;5.930;2023-06-14T06:32:50;23.84;32.43
75357;HTU21D;63946;51.986;5.930;2023-06-14T06:35:21;23.91;32.35
75357;HTU21D;63946;51.986;5.930;2023-06-14T06:37:50;24.02;32.23
75357;HTU21D;63946;51.986;5.930;2023-06-14T06:40:20;24.19;31.83
75357;HTU21D;63946;51.986;5.930;2023-06-14T06:42:49;24.08;31.75
75357;HTU21D;63946;51.986;5.930;2023-06-14T06:45:19;23.70;32.19
75357;HTU21D;63946;51.986;5.930;2023-06-14T06:47:49;23.47;32.67
75357;HTU21D;63946;51.986;5.930;2023-06-14T06:50:20;23.64;32.45
75357;HTU21D;63946;51.986;5.930;2023-06-14T06:52:49;23.69;32.20
75357;HTU21D;63946;51.986;5.930;2023-06-14T06:55:18;23.69;32.02
75357;HTU21D;63946;51.986;5.930;2023-06-14T06:57:47;23.58;32.15
75357;HTU21D;63946;51.986;5.930;2023-06-14T07:00:18;23.59;32.40
75357;HTU21D;63946;51.986;5.930;2023-06-14T07:02:47;23.74;32.01
75357;HTU21D;63946;51.986;5.930;2023-06-14T07:05:16;23.84;31.84
75357;HTU21D;63946;51.986;5.930;2023-06-14T07:07:45;23.71;32.15
75357;HTU21D;63946;51.986;5.930;2023-06-14T07:10:13;23.97;31.73
75357;HTU21D;63946;51.986;5.930;2023-06-14T07:12:42;24.05;31.32
75357;HTU21D;63946;51.986;5.930;2023-06-14T07:15:12;23.98;31.73
75357;HTU21D;63946;51.986;5.930;2023-06-14T07:17:40;24.10;31.50
75357;HTU21D;63946;51.986;5.930;2023-06-14T07:20:09;24.18;31.24
75357;HTU21D;63946;51.986;5.930;2023-06-14T07:22:42;24.19;31.22
75357;HTU21D;63946;51.986;5.930;2023-06-14T07:25:12;24.21;31.19
75357;HTU21D;63946;51.986;5.930;2023-06-14T07:27:42;24.42;30.78
75357;HTU21D;63946;51.986;5.930;2023-06-14T07:30:11;24.54;30.41
75357;HTU21D;63946;51.986;5.930;2023-06-14T07:32:40;24.53;30.58
75357;HTU21D;63946;51.986;5.930;2023-06-14T07:35:08;24.86;30.45
75357;HTU21D;63946;51.986;5.930;2023-06-14T07:37:37;25.14;30.06
75357;HTU21D;63946;51.986;5.930;2023-06-14T07:40:06;25.33;29.69
75357;HTU21D;63946;51.986;5.930;2023-06-14T07:42:36;25.46;29.51
75357;HTU21D;63946;51.986;5.930;2023-06-14T07:45:05;25.67;28.72
75357;HTU21D;63946;51.986;5.930;2023-06-14T07:47:35;25.66;28.49
75357;HTU21D;63946;51.986;5.930;2023-06-14T07:50:04;25.68;28.55
75357;HTU21D;63946;51.986;5.930;2023-06-14T07:52:35;25.78;28.60
75357;HTU21D;63946;51.986;5.930;2023-06-14T07:55:04;25.96;28.13
75357;HTU21D;63946;51.986;5.930;2023-06-14T07:57:33;25.94;28.16
75357;HTU21D;63946;51.986;5.930;2023-06-14T08:00:03;26.02;27.40
75357;HTU21D;63946;51.986;5.930;2023-06-14T08:02:43;25.78;27.20
75357;HTU21D;63946;51.986;5.930;2023-06-14T08:05:12;25.71;27.49
75357;HTU21D;63946;51.986;5.930;2023-06-14T08:07:41;25.88;27.16
75357;HTU21D;63946;51.986;5.930;2023-06-14T08:10:10;26.01;26.78
75357;HTU21D;63946;51.986;5.930;2023-06-14T08:12:38;26.13;26.46
75357;HTU21D;63946;51.986;5.930;2023-06-14T08:15:07;26.08;26.16
75357;HTU21D;63946;51.986;5.930;2023-06-14T08:17:36;26.25;25.84
75357;HTU21D;63946;51.986;5.930;2023-06-14T08:20:05;26.06;25.94
75357;HTU21D;63946;51.986;5.930;2023-06-14T08:22:34;26.16;26.10
75357;HTU21D;63946;51.986;5.930;2023-06-14T08:25:03;26.24;25.77
75357;HTU21D;63946;51.986;5.930;2023-06-14T08:27:32;26.22;25.42
75357;HTU21D;63946;51.986;5.930;2023-06-14T08:30:02;26.30;25.35
75357;HTU21D;63946;51.986;5.930;2023-06-14T08:32:30;26.64;25.02
75357;HTU21D;63946;51.986;5.930;2023-06-14T08:34:59;26.89;24.95
75357;HTU21D;63946;51.986;5.930;2023-06-14T08:37:28;27.22;24.65
75357;HTU21D;63946;51.986;5.930;2023-06-14T08:39:57;27.21;24.55
75357;HTU21D;63946;51.986;5.930;2023-06-14T08:42:25;27.30;24.71
75357;HTU21D;63946;51.986;5.930;2023-06-14T08:44:54;27.46;24.21
75357;HTU21D;63946;51.986;5.930;2023-06-14T08:47:23;27.32;23.64
75357;HTU21D;63946;51.986;5.930;2023-06-14T08:49:58;27.11;23.07
75357;HTU21D;63946;51.986;5.930;2023-06-14T08:52:31;27.07;23.52
75357;HTU21D;63946;51.986;5.930;2023-06-14T08:55:07;27.11;23.32
75357;HTU21D;63946;51.986;5.930;2023-06-14T08:57:38;26.77;24.27
75357;HTU21D;63946;51.986;5.930;2023-06-14T09:00:08;26.78;24.54
75357;HTU21D;63946;51.986;5.930;2023-06-14T09:02:39;26.90;24.40
75357;HTU21D;63946;51.986;5.930;2023-06-14T09:05:10;27.02;24.08
75357;HTU21D;63946;51.986;5.930;2023-06-14T09:07:40;27.10;24.01
75357;HTU21D;63946;51.986;5.930;2023-06-14T09:10:11;27.08;24.08
75357;HTU21D;63946;51.986;5.930;2023-06-14T09:12:40;27.02;23.63
75357;HTU21D;63946;51.986;5.930;2023-06-14T09:15:09;26.99;23.17
75357;HTU21D;63946;51.986;5.930;2023-06-14T09:17:40;26.82;23.16
75357;HTU21D;63946;51.986;5.930;2023-06-14T09:20:09;26.83;23.54
75357;HTU21D;63946;51.986;5.930;2023-06-14T09:22:39;26.78;23.69
75357;HTU21D;63946;51.986;5.930;2023-06-14T09:25:08;26.70;23.83
75357;HTU21D;63946;51.986;5.930;2023-06-14T09:27:37;26.67;24.18
75357;HTU21D;63946;51.986;5.930;2023-06-14T09:30:11;26.84;24.20
75357;HTU21D;63946;51.986;5.930;2023-06-14T09:32:40;26.77;24.30
75357;HTU21D;63946;51.986;5.930;2023-06-14T09:35:09;26.57;24.96
75357;HTU21D;63946;51.986;5.930;2023-06-14T09:37:38;26.65;24.98
75357;HTU21D;63946;51.986;5.930;2023-06-14T09:40:07;26.75;24.88
75357;HTU21D;63946;51.986;5.930;2023-06-14T09:42:37;27.00;24.55
75357;HTU21D;63946;51.986;5.930;2023-06-14T09:45:07;27.02;24.18
75357;HTU21D;63946;51.986;5.930;2023-06-14T09:47:38;26.93;24.45
75357;HTU21D;63946;51.986;5.930;2023-06-14T09:50:07;27.16;24.52
75357;HTU21D;63946;51.986;5.930;2023-06-14T09:52:37;27.47;23.86
75357;HTU21D;63946;51.986;5.930;2023-06-14T09:55:12;27.43;22.96
75357;HTU21D;63946;51.986;5.930;2023-06-14T09:57:42;27.34;22.64
75357;HTU21D;63946;51.986;5.930;2023-06-14T10:00:12;27.64;22.62
75357;HTU21D;63946;51.986;5.930;2023-06-14T10:02:42;27.97;21.60
75357;HTU21D;63946;51.986;5.930;2023-06-14T10:05:17;27.75;21.67
75357;HTU21D;63946;51.986;5.930;2023-06-14T10:10:21;27.57;22.19
75357;HTU21D;63946;51.986;5.930;2023-06-14T10:12:50;27.57;22.58
75357;HTU21D;63946;51.986;5.930;2023-06-14T10:15:45;27.57;22.49
75357;HTU21D;63946;51.986;5.930;2023-06-14T10:18:22;27.65;22.34
75357;HTU21D;63946;51.986;5.930;2023-06-14T10:23:47;27.65;21.78
75357;HTU21D;63946;51.986;5.930;2023-06-14T10:26:19;27.28;21.93
75357;HTU21D;63946;51.986;5.930;2023-06-14T10:29:14;27.06;22.97
75357;HTU21D;63946;51.986;5.930;2023-06-14T10:31:45;27.34;22.56
75357;HTU21D;63946;51.986;5.930;2023-06-14T10:34:30;27.67;22.51
75357;HTU21D;63946;51.986;5.930;2023-06-14T10:37:12;27.61;22.15
75357;HTU21D;63946;51.986;5.930;2023-06-14T10:39:44;27.74;22.24
75357;HTU21D;63946;51.986;5.930;2023-06-14T10:42:13;27.82;21.81
75357;HTU21D;63946;51.986;5.930;2023-06-14T10:44:55;27.51;22.08
75357;HTU21D;63946;51.986;5.930;2023-06-14T10:47:31;27.44;21.76
75357;HTU21D;63946;51.986;5.930;2023-06-14T10:50:05;27.23;21.63
75357;HTU21D;63946;51.986;5.930;2023-06-14T10:52:39;27.23;21.90
75357;HTU21D;63946;51.986;5.930;2023-06-14T10:55:15;27.47;21.80
75357;HTU21D;63946;51.986;5.930;2023-06-14T10:57:52;27.60;21.44
75357;HTU21D;63946;51.986;5.930;2023-06-14T11:00:23;27.54;21.52
75357;HTU21D;63946;51.986;5.930;2023-06-14T11:05:29;27.53;21.24
75357;HTU21D;63946;51.986;5.930;2023-06-14T11:10:44;27.35;21.94
75357;HTU21D;63946;51.986;5.930;2023-06-14T11:13:16;27.30;22.39
75357;HTU21D;63946;51.986;5.930;2023-06-14T11:15:47;27.45;21.95
75357;HTU21D;63946;51.986;5.930;2023-06-14T11:18:21;27.47;21.66
75357;HTU21D;63946;51.986;5.930;2023-06-14T11:20:50;27.52;21.67
75357;HTU21D;63946;51.986;5.930;2023-06-14T11:23:25;27.55;21.48
75357;HTU21D;63946;51.986;5.930;2023-06-14T11:25:57;27.58;21.13
75357;HTU21D;63946;51.986;5.930;2023-06-14T11:28:38;27.42;21.47
75357;HTU21D;63946;51.986;5.930;2023-06-14T11:31:08;27.67;21.80
75357;HTU21D;63946;51.986;5.930;2023-06-14T11:33:37;27.95;20.97
75357;HTU21D;63946;51.986;5.930;2023-06-14T11:36:08;27.99;20.80
75357;HTU21D;63946;51.986;5.930;2023-06-14T11:38:37;27.94;21.19
75357;HTU21D;63946;51.986;5.930;2023-06-14T11:41:06;27.96;21.25
75357;HTU21D;63946;51.986;5.930;2023-06-14T11:43:34;27.94;21.29
75357;HTU21D;63946;51.986;5.930;2023-06-14T11:46:03;27.91;21.50
75357;HTU21D;63946;51.986;5.930;2023-06-14T11:48:37;27.85;21.73
75357;HTU21D;63946;51.986;5.930;2023-06-14T11:51:06;27.90;21.44
75357;HTU21D;63946;51.986;5.930;2023-06-14T11:53:35;27.84;21.52
75357;HTU21D;63946;51.986;5.930;2023-06-14T11:56:32;28.00;21.85
75357;HTU21D;63946;51.986;5.930;2023-06-14T11:59:05;28.17;21.60
75357;HTU21D;63946;51.986;5.930;2023-06-14T12:01:37;28.16;21.25
75357;HTU21D;63946;51.986;5.930;2023-06-14T12:04:06;27.63;21.82
75357;HTU21D;63946;51.986;5.930;2023-06-14T12:06:35;27.43;21.70
75357;HTU21D;63946;51.986;5.930;2023-06-14T12:09:06;27.09;22.37
75357;HTU21D;63946;51.986;5.930;2023-06-14T12:11:41;27.24;22.07
75357;HTU21D;63946;51.986;5.930;2023-06-14T12:14:10;27.26;21.99
75357;HTU21D;63946;51.986;5.930;2023-06-14T12:16:42;27.34;22.21
75357;HTU21D;63946;51.986;5.930;2023-06-14T12:19:15;27.49;22.53
75357;HTU21D;63946;51.986;5.930;2023-06-14T12:21:47;27.80;22.28
75357;HTU21D;63946;51.986;5.930;2023-06-14T12:24:18;28.00;22.02
75357;HTU21D;63946;51.986;5.930;2023-06-14T12:26:46;28.03;21.63
75357;HTU21D;63946;51.986;5.930;2023-06-14T12:29:15;27.94;22.10
75357;HTU21D;63946;51.986;5.930;2023-06-14T12:31:44;28.01;21.92
75357;HTU21D;63946;51.986;5.930;2023-06-14T12:34:13;27.91;22.07
75357;HTU21D;63946;51.986;5.930;2023-06-14T12:36:41;27.82;22.10
75357;HTU21D;63946;51.986;5.930;2023-06-14T12:39:12;27.71;22.39
75357;HTU21D;63946;51.986;5.930;2023-06-14T12:41:41;27.64;22.27
75357;HTU21D;63946;51.986;5.930;2023-06-14T12:44:13;27.56;22.53
75357;HTU21D;63946;51.986;5.930;2023-06-14T12:46:42;27.58;22.75
75357;HTU21D;63946;51.986;5.930;2023-06-14T12:49:11;27.55;22.67
75357;HTU21D;63946;51.986;5.930;2023-06-14T12:51:40;27.14;22.73
75357;HTU21D;63946;51.986;5.930;2023-06-14T12:54:09;26.85;23.04
75357;HTU21D;63946;51.986;5.930;2023-06-14T12:56:38;26.84;23.60
75357;HTU21D;63946;51.986;5.930;2023-06-14T12:59:07;26.87;23.93
75357;HTU21D;63946;51.986;5.930;2023-06-14T13:01:38;27.14;23.79
75357;HTU21D;63946;51.986;5.930;2023-06-14T13:04:10;27.23;23.27
75357;HTU21D;63946;51.986;5.930;2023-06-14T13:06:41;27.06;23.17
75357;HTU21D;63946;51.986;5.930;2023-06-14T13:09:10;27.20;23.40
75357;HTU21D;63946;51.986;5.930;2023-06-14T13:11:40;27.40;22.86
75357;HTU21D;63946;51.986;5.930;2023-06-14T13:14:12;27.19;23.11
75357;HTU21D;63946;51.986;5.930;2023-06-14T13:16:42;26.96;23.30
75357;HTU21D;63946;51.986;5.930;2023-06-14T13:19:10;26.91;23.31
75357;HTU21D;63946;51.986;5.930;2023-06-14T13:21:39;27.11;23.01
75357;HTU21D;63946;51.986;5.930;2023-06-14T13:24:08;27.37;22.60
75357;HTU21D;63946;51.986;5.930;2023-06-14T13:26:36;27.47;22.37
75357;HTU21D;63946;51.986;5.930;2023-06-14T13:29:05;27.46;22.34
75357;HTU21D;63946;51.986;5.930;2023-06-14T13:31:34;27.64;21.72
75357;HTU21D;63946;51.986;5.930;2023-06-14T13:34:02;27.51;21.52
75357;HTU21D;63946;51.986;5.930;2023-06-14T13:36:31;27.55;21.88
75357;HTU21D;63946;51.986;5.930;2023-06-14T13:39:00;27.73;21.88
75357;HTU21D;63946;51.986;5.930;2023-06-14T13:41:29;27.80;21.85
75357;HTU21D;63946;51.986;5.930;2023-06-14T13:44:01;27.78;22.47
75357;HTU21D;63946;51.986;5.930;2023-06-14T13:46:30;28.03;22.25
75357;HTU21D;63946;51.986;5.930;2023-06-14T13:49:01;28.15;22.03
75357;HTU21D;63946;51.986;5.930;2023-06-14T13:51:31;28.08;21.71
75357;HTU21D;63946;51.986;5.930;2023-06-14T13:54:00;28.13;21.35
75357;HTU21D;63946;51.986;5.930;2023-06-14T13:56:29;27.93;21.21
75357;HTU21D;63946;51.986;5.930;2023-06-14T13:58:58;27.94;21.16
75357;HTU21D;63946;51.986;5.930;2023-06-14T14:01:27;28.03;21.36
75357;HTU21D;63946;51.986;5.930;2023-06-14T14:03:56;27.86;21.62
75357;HTU21D;63946;51.986;5.930;2023-06-14T14:06:26;27.71;21.98
75357;HTU21D;63946;51.986;5.930;2023-06-14T14:08:55;27.63;22.24
75357;HTU21D;63946;51.986;5.930;2023-06-14T14:11:24;27.54;22.73
75357;HTU21D;63946;51.986;5.930;2023-06-14T14:13:53;27.67;23.03
75357;HTU21D;63946;51.986;5.930;2023-06-14T14:16:22;27.94;22.83
75357;HTU21D;63946;51.986;5.930;2023-06-14T14:18:51;27.91;22.52
75357;HTU21D;63946;51.986;5.930;2023-06-14T14:21:20;27.74;22.24
75357;HTU21D;63946;51.986;5.930;2023-06-14T14:23:49;27.59;21.41
75357;HTU21D;63946;51.986;5.930;2023-06-14T14:26:18;27.27;21.49
75357;HTU21D;63946;51.986;5.930;2023-06-14T14:28:46;27.21;21.53
75357;HTU21D;63946;51.986;5.930;2023-06-14T14:31:15;27.30;21.71
75357;HTU21D;63946;51.986;5.930;2023-06-14T14:33:44;27.61;21.90
75357;HTU21D;63946;51.986;5.930;2023-06-14T14:36:13;27.82;21.15
75357;HTU21D;63946;51.986;5.930;2023-06-14T14:38:41;27.78;21.08
75357;HTU21D;63946;51.986;5.930;2023-06-14T14:41:14;27.73;21.17
75357;HTU21D;63946;51.986;5.930;2023-06-14T14:43:43;27.64;21.28
75357;HTU21D;63946;51.986;5.930;2023-06-14T14:46:12;27.65;21.39
75357;HTU21D;63946;51.986;5.930;2023-06-14T14:48:45;27.68;21.69
75357;HTU21D;63946;51.986;5.930;2023-06-14T14:51:13;27.69;21.64
75357;HTU21D;63946;51.986;5.930;2023-06-14T14:53:42;27.59;21.60
75357;HTU21D;63946;51.986;5.930;2023-06-14T14:56:11;27.59;21.72
75357;HTU21D;63946;51.986;5.930;2023-06-14T14:58:40;27.51;21.88
75357;HTU21D;63946;51.986;5.930;2023-06-14T15:01:08;27.52;21.98
75357;HTU21D;63946;51.986;5.930;2023-06-14T15:03:37;27.67;21.93
75357;HTU21D;63946;51.986;5.930;2023-06-14T15:06:12;27.72;21.81
75357;HTU21D;63946;51.986;5.930;2023-06-14T15:08:41;27.71;21.48
75357;HTU21D;63946;51.986;5.930;2023-06-14T15:11:09;27.68;21.57
75357;HTU21D;63946;51.986;5.930;2023-06-14T15:13:38;27.61;21.75
75357;HTU21D;63946;51.986;5.930;2023-06-14T15:16:07;27.59;21.95
75357;HTU21D;63946;51.986;5.930;2023-06-14T15:18:35;27.53;22.14
75357;HTU21D;63946;51.986;5.930;2023-06-14T15:21:04;27.44;22.24
75357;HTU21D;63946;51.986;5.930;2023-06-14T15:23:36;27.49;22.42
75357;HTU21D;63946;51.986;5.930;2023-06-14T15:26:04;27.45;22.56
75357;HTU21D;63946;51.986;5.930;2023-06-14T15:28:33;27.39;22.78
75357;HTU21D;63946;51.986;5.930;2023-06-14T15:31:02;27.39;22.83
75357;HTU21D;63946;51.986;5.930;2023-06-14T15:33:31;27.38;22.87
75357;HTU21D;63946;51.986;5.930;2023-06-14T15:35:59;27.41;22.83
75357;HTU21D;63946;51.986;5.930;2023-06-14T15:38:28;27.44;22.71
75357;HTU21D;63946;51.986;5.930;2023-06-14T15:40:58;27.45;22.47
75357;HTU21D;63946;51.986;5.930;2023-06-14T15:43:26;27.34;22.47
75357;HTU21D;63946;51.986;5.930;2023-06-14T15:45:58;27.29;23.06
75357;HTU21D;63946;51.986;5.930;2023-06-14T15:48:27;27.27;23.05
75357;HTU21D;63946;51.986;5.930;2023-06-14T15:50:55;27.16;23.59
75357;HTU21D;63946;51.986;5.930;2023-06-14T15:53:24;27.15;23.11
75357;HTU21D;63946;51.986;5.930;2023-06-14T15:55:53;27.08;22.61
75357;HTU21D;63946;51.986;5.930;2023-06-14T15:58:21;26.98;22.20
75357;HTU21D;63946;51.986;5.930;2023-06-14T16:00:50;26.79;22.76
75357;HTU21D;63946;51.986;5.930;2023-06-14T16:03:19;26.67;22.95
75357;HTU21D;63946;51.986;5.930;2023-06-14T16:05:48;26.61;23.13
75357;HTU21D;63946;51.986;5.930;2023-06-14T16:08:16;26.57;23.40
75357;HTU21D;63946;51.986;5.930;2023-06-14T16:10:45;26.62;23.27
75357;HTU21D;63946;51.986;5.930;2023-06-14T16:13:14;26.56;23.42
75357;HTU21D;63946;51.986;5.930;2023-06-14T16:15:43;26.51;23.54
75357;HTU21D;63946;51.986;5.930;2023-06-14T16:18:12;26.51;23.81
75357;HTU21D;63946;51.986;5.930;2023-06-14T16:20:40;26.65;23.42
75357;HTU21D;63946;51.986;5.930;2023-06-14T16:23:09;26.66;23.05
75357;HTU21D;63946;51.986;5.930;2023-06-14T16:25:38;26.62;23.33
75357;HTU21D;63946;51.986;5.930;2023-06-14T16:28:07;26.54;23.51
75357;HTU21D;63946;51.986;5.930;2023-06-14T16:30:35;26.46;23.59
75357;HTU21D;63946;51.986;5.930;2023-06-14T16:33:04;26.38;23.89
75357;HTU21D;63946;51.986;5.930;2023-06-14T16:35:33;26.43;24.01
75357;HTU21D;63946;51.986;5.930;2023-06-14T16:38:02;26.39;24.14
75357;HTU21D;63946;51.986;5.930;2023-06-14T16:40:30;26.30;24.43
75357;HTU21D;63946;51.986;5.930;2023-06-14T16:42:59;26.21;24.63
75357;HTU21D;63946;51.986;5.930;2023-06-14T16:45:28;26.26;24.67
75357;HTU21D;63946;51.986;5.930;2023-06-14T16:47:57;26.18;24.73
75357;HTU21D;63946;51.986;5.930;2023-06-14T16:50:25;26.15;24.83
75357;HTU21D;63946;51.986;5.930;2023-06-14T16:52:54;26.19;24.73
75357;HTU21D;63946;51.986;5.930;2023-06-14T16:55:23;26.17;24.87
75357;HTU21D;63946;51.986;5.930;2023-06-14T16:57:51;26.24;24.68
75357;HTU21D;63946;51.986;5.930;2023-06-14T17:00:22;26.15;24.46
75357;HTU21D;63946;51.986;5.930;2023-06-14T17:02:54;25.98;24.61
75357;HTU21D;63946;51.986;5.930;2023-06-14T17:05:22;25.98;24.74
75357;HTU21D;63946;51.986;5.930;2023-06-14T17:07:51;25.99;24.85
75357;HTU21D;63946;51.986;5.930;2023-06-14T17:10:20;26.02;25.02
75357;HTU21D;63946;51.986;5.930;2023-06-14T17:12:48;25.95;25.26
75357;HTU21D;63946;51.986;5.930;2023-06-14T17:15:17;25.95;25.42
75357;HTU21D;63946;51.986;5.930;2023-06-14T17:17:46;25.95;25.42
75357;HTU21D;63946;51.986;5.930;2023-06-14T17:20:15;25.95;25.49
75357;HTU21D;63946;51.986;5.930;2023-06-14T17:22:44;25.90;25.71
75357;HTU21D;63946;51.986;5.930;2023-06-14T17:25:13;25.82;25.87
75357;HTU21D;63946;51.986;5.930;2023-06-14T17:27:41;25.73;26.14
75357;HTU21D;63946;51.986;5.930;2023-06-14T17:30:10;25.73;26.20
75357;HTU21D;63946;51.986;5.930;2023-06-14T17:32:40;25.71;26.32
75357;HTU21D;63946;51.986;5.930;2023-06-14T17:35:08;25.67;26.30
75357;HTU21D;63946;51.986;5.930;2023-06-14T17:37:40;25.63;26.41
75357;HTU21D;63946;51.986;5.930;2023-06-14T17:40:09;25.64;26.56
75357;HTU21D;63946;51.986;5.930;2023-06-14T17:42:38;25.60;26.67
75357;HTU21D;63946;51.986;5.930;2023-06-14T17:45:07;25.62;26.83
75357;HTU21D;63946;51.986;5.930;2023-06-14T17:47:36;25.62;26.93
75357;HTU21D;63946;51.986;5.930;2023-06-14T17:50:05;25.60;27.07
75357;HTU21D;63946;51.986;5.930;2023-06-14T17:52:34;25.56;27.21
75357;HTU21D;63946;51.986;5.930;2023-06-14T17:55:03;25.47;27.43
75357;HTU21D;63946;51.986;5.930;2023-06-14T17:57:31;25.36;27.62
75357;HTU21D;63946;51.986;5.930;2023-06-14T18:00:00;25.34;27.75
75357;HTU21D;63946;51.986;5.930;2023-06-14T18:02:37;25.30;27.85
75357;HTU21D;63946;51.986;5.930;2023-06-14T18:05:06;25.28;28.00
75357;HTU21D;63946;51.986;5.930;2023-06-14T18:07:35;25.19;28.23
75357;HTU21D;63946;51.986;5.930;2023-06-14T18:10:04;25.15;28.36
75357;HTU21D;63946;51.986;5.930;2023-06-14T18:12:33;25.16;28.26
75357;HTU21D;63946;51.986;5.930;2023-06-14T18:15:02;25.18;28.39
75357;HTU21D;63946;51.986;5.930;2023-06-14T18:17:31;25.18;28.39
75357;HTU21D;63946;51.986;5.930;2023-06-14T18:20:00;25.18;28.48
75357;HTU21D;63946;51.986;5.930;2023-06-14T18:22:32;25.09;28.57
75357;HTU21D;63946;51.986;5.930;2023-06-14T18:25:00;25.06;28.80
75357;HTU21D;63946;51.986;5.930;2023-06-14T18:27:29;25.03;28.86
75357;HTU21D;63946;51.986;5.930;2023-06-14T18:29:58;25.00;28.98
75357;HTU21D;63946;51.986;5.930;2023-06-14T18:32:26;24.98;29.08
75357;HTU21D;63946;51.986;5.930;2023-06-14T18:34:57;24.94;29.23
75357;HTU21D;63946;51.986;5.930;2023-06-14T18:37:26;24.94;29.35
75357;HTU21D;63946;51.986;5.930;2023-06-14T18:39:55;24.89;29.52
75357;HTU21D;63946;51.986;5.930;2023-06-14T18:42:23;24.83;29.72
75357;HTU21D;63946;51.986;5.930;2023-06-14T18:44:52;24.78;29.80
75357;HTU21D;63946;51.986;5.930;2023-06-14T18:47:21;24.76;29.70
75357;HTU21D;63946;51.986;5.930;2023-06-14T18:49:49;24.73;29.70
75357;HTU21D;63946;51.986;5.930;2023-06-14T18:52:18;24.72;29.80
75357;HTU21D;63946;51.986;5.930;2023-06-14T18:54:47;24.70;29.83
75357;HTU21D;63946;51.986;5.930;2023-06-14T18:57:15;24.68;29.93
75357;HTU21D;63946;51.986;5.930;2023-06-14T18:59:46;24.64;30.04
75357;HTU21D;63946;51.986;5.930;2023-06-14T19:02:15;24.60;30.05
75357;HTU21D;63946;51.986;5.930;2023-06-14T19:04:44;24.54;30.13
75357;HTU21D;63946;51.986;5.930;2023-06-14T19:07:12;24.49;30.27
75357;HTU21D;63946;51.986;5.930;2023-06-14T19:09:41;24.45;30.38
75357;HTU21D;63946;51.986;5.930;2023-06-14T19:12:10;24.40;30.58
75357;HTU21D;63946;51.986;5.930;2023-06-14T19:14:41;24.38;30.67
75357;HTU21D;63946;51.986;5.930;2023-06-14T19:17:10;24.38;30.71
75357;HTU21D;63946;51.986;5.930;2023-06-14T19:19:38;24.38;30.90
75357;HTU21D;63946;51.986;5.930;2023-06-14T19:22:08;24.33;30.77
75357;HTU21D;63946;51.986;5.930;2023-06-14T19:24:40;24.34;30.90
75357;HTU21D;63946;51.986;5.930;2023-06-14T19:27:09;24.29;31.11
75357;HTU21D;63946;51.986;5.930;2023-06-14T19:29:41;24.25;31.34
75357;HTU21D;63946;51.986;5.930;2023-06-14T19:32:09;24.17;31.50
75357;HTU21D;63946;51.986;5.930;2023-06-14T19:34:38;24.12;31.80
75357;HTU21D;63946;51.986;5.930;2023-06-14T19:37:10;24.09;31.86
75357;HTU21D;63946;51.986;5.930;2023-06-14T19:39:42;24.03;32.19
75357;HTU21D;63946;51.986;5.930;2023-06-14T19:42:10;23.99;32.38
75357;HTU21D;63946;51.986;5.930;2023-06-14T19:44:39;23.94;32.67
75357;HTU21D;63946;51.986;5.930;2023-06-14T19:47:08;23.88;32.78
75357;HTU21D;63946;51.986;5.930;2023-06-14T19:49:37;23.80;32.89
75357;HTU21D;63946;51.986;5.930;2023-06-14T19:52:06;23.76;33.01
75357;HTU21D;63946;51.986;5.930;2023-06-14T19:54:35;23.70;33.36
75357;HTU21D;63946;51.986;5.930;2023-06-14T19:57:03;23.65;33.47
75357;HTU21D;63946;51.986;5.930;2023-06-14T19:59:32;23.59;33.57
75357;HTU21D;63946;51.986;5.930;2023-06-14T20:02:01;23.56;33.76
75357;HTU21D;63946;51.986;5.930;2023-06-14T20:04:29;23.50;33.89
75357;HTU21D;63946;51.986;5.930;2023-06-14T20:07:04;23.44;33.97
75357;HTU21D;63946;51.986;5.930;2023-06-14T20:09:34;23.42;34.05
75357;HTU21D;63946;51.986;5.930;2023-06-14T20:12:03;23.31;34.24
75357;HTU21D;63946;51.986;5.930;2023-06-14T20:14:32;23.25;34.33
75357;HTU21D;63946;51.986;5.930;2023-06-14T20:17:01;23.18;34.45
75357;HTU21D;63946;51.986;5.930;2023-06-14T20:19:30;23.12;34.61
75357;HTU21D;63946;51.986;5.930;2023-06-14T20:21:59;23.06;34.88
75357;HTU21D;63946;51.986;5.930;2023-06-14T20:24:27;23.02;34.96
75357;HTU21D;63946;51.986;5.930;2023-06-14T20:26:56;22.97;35.04
75357;HTU21D;63946;51.986;5.930;2023-06-14T20:29:25;22.91;35.12
75357;HTU21D;63946;51.986;5.930;2023-06-14T20:31:53;22.83;35.29
75357;HTU21D;63946;51.986;5.930;2023-06-14T20:34:22;22.76;35.45
75357;HTU21D;63946;51.986;5.930;2023-06-14T20:36:51;22.72;35.48
75357;HTU21D;63946;51.986;5.930;2023-06-14T20:39:19;22.66;35.60
75357;HTU21D;63946;51.986;5.930;2023-06-14T20:41:48;22.60;35.73
75357;HTU21D;63946;51.986;5.930;2023-06-14T20:44:17;22.53;35.75
75357;HTU21D;63946;51.986;5.930;2023-06-14T20:46:46;22.49;35.75
75357;HTU21D;63946;51.986;5.930;2023-06-14T20:49:15;22.49;35.89
75357;HTU21D;63946;51.986;5.930;2023-06-14T20:51:44;22.43;35.97
75357;HTU21D;63946;51.986;5.930;2023-06-14T20:54:13;22.36;36.04
75357;HTU21D;63946;51.986;5.930;2023-06-14T20:56:42;22.32;36.14
75357;HTU21D;63946;51.986;5.930;2023-06-14T20:59:10;22.26;36.24
75357;HTU21D;63946;51.986;5.930;2023-06-14T21:01:39;22.23;36.40
75357;HTU21D;63946;51.986;5.930;2023-06-14T21:04:08;22.19;36.42